Time,TemperatureF,DewpointF,PressureIn,WindDirection,WindDirectionDegrees,WindSpeedMPH,WindSpeedGustMPH,Humidity,HourlyPrecipIn,Conditions,Clouds,dailyrainin,SoftwareType,DateUTC
2013-10-06 00:14:00,68.0,67.0,29.85,SSW,209,3.0,5.0,97,0.00,,,0.09,,2013-10-06 04:14:00,
2013-10-06 00:24:00,68.0,67.0,29.85,SSW,207,4.0,6.0,97,0.00,,,0.09,,2013-10-06 04:24:00,
2013-10-06 00:44:00,68.0,67.0,29.86,WSW,250,4.0,6.0,97,0.00,,,0.09,,2013-10-06 04:44:00,
2013-10-06 00:54:00,68.0,67.0,29.85,SSW,192,7.0,10.0,96,0.00,,,0.09,,2013-10-06 04:54:00,
2013-10-06 01:13:00,68.0,67.0,29.84,SW,226,4.0,7.0,96,0.00,,,0.09,,2013-10-06 05:13:00,
2013-10-06 01:23:00,68.0,66.0,29.83,South,188,5.0,8.0,94,0.00,,,0.09,,2013-10-06 05:23:00,
2013-10-06 01:43:00,68.0,66.0,29.83,WSW,252,5.0,8.0,93,0.00,,,0.09,,2013-10-06 05:43:00,
2013-10-06 01:52:00,67.0,65.0,29.82,SW,221,4.0,8.0,93,0.00,,,0.09,,2013-10-06 05:52:00,
2013-10-06 02:12:00,67.0,65.0,29.81,SW,233,4.0,7.0,94,0.00,,,0.09,,2013-10-06 06:12:00,
2013-10-06 02:22:00,66.0,65.0,29.81,SW,216,3.0,7.0,95,0.00,,,0.09,,2013-10-06 06:22:00,
2013-10-06 02:42:00,66.0,65.0,29.81,SSE,161,4.0,8.0,95,0.00,,,0.09,,2013-10-06 06:42:00,
2013-10-06 02:52:00,67.0,66.0,29.80,South,181,4.0,9.0,95,0.00,,,0.09,,2013-10-06 06:52:00,
2013-10-06 03:11:00,66.0,65.0,29.82,South,180,5.0,8.0,95,0.00,,,0.09,,2013-10-06 07:11:00,
2013-10-06 03:22:00,66.0,65.0,29.82,North,360,5.0,9.0,95,0.00,,,0.09,,2013-10-06 07:22:00,
2013-10-06 03:42:00,66.0,65.0,29.82,North,360,4.0,10.0,95,0.00,,,0.09,,2013-10-06 07:42:00,
2013-10-06 03:52:00,66.0,65.0,29.80,North,360,5.0,8.0,95,0.00,,,0.09,,2013-10-06 07:52:00,
2013-10-06 04:11:00,66.0,65.0,29.79,North,360,5.0,8.0,95,0.00,,,0.09,,2013-10-06 08:11:00,
2013-10-06 04:22:00,66.0,65.0,29.78,North,360,5.0,9.0,95,0.01,,,0.10,,2013-10-06 08:22:00,
2013-10-06 04:42:00,66.0,65.0,29.79,North,360,3.0,9.0,96,0.01,,,0.10,,2013-10-06 08:42:00,
2013-10-06 04:53:00,66.0,65.0,29.79,North,360,4.0,8.0,96,0.01,,,0.10,,2013-10-06 08:53:00,
2013-10-06 05:11:00,66.0,65.0,29.78,North,360,5.0,9.0,96,0.02,,,0.11,,2013-10-06 09:11:00,
2013-10-06 05:22:00,66.0,65.0,29.77,North,360,4.0,9.0,96,0.01,,,0.11,,2013-10-06 09:22:00,
2013-10-06 05:33:00,66.0,65.0,29.77,North,360,4.0,9.0,96,0.01,,,0.11,,2013-10-06 09:33:00,
2013-10-06 05:43:00,66.0,65.0,29.77,North,360,4.0,9.0,96,0.01,,,0.11,,2013-10-06 09:43:00,
2013-10-06 05:53:00,66.0,65.0,29.78,North,360,4.0,7.0,97,0.01,,,0.11,,2013-10-06 09:53:00,
2013-10-06 06:13:00,66.0,65.0,29.78,North,360,6.0,10.0,97,0.00,,,0.11,,2013-10-06 10:13:00,
2013-10-06 06:23:00,66.0,65.0,29.77,North,360,4.0,9.0,97,0.00,,,0.11,,2013-10-06 10:23:00,
2013-10-06 06:43:00,66.0,65.0,29.78,North,360,5.0,9.0,96,0.00,,,0.11,,2013-10-06 10:43:00,
2013-10-06 06:53:00,66.0,65.0,29.77,North,360,327.0,327.0,96,-99.99,,,-99.99,,2013-10-06 10:53:00,
2013-10-06 07:12:00,66.0,65.0,29.78,North,360,5.0,9.0,96,0.00,,,0.11,,2013-10-06 11:12:00,
2013-10-06 07:22:00,66.0,65.0,29.78,North,360,5.0,8.0,96,0.00,,,0.11,,2013-10-06 11:22:00,
2013-10-06 07:42:00,66.0,65.0,29.77,North,360,6.0,11.0,96,0.00,,,0.11,,2013-10-06 11:42:00,
2013-10-06 07:52:00,66.0,65.0,29.76,North,360,5.0,9.0,96,0.00,,,0.11,,2013-10-06 11:52:00,
2013-10-06 08:12:00,66.0,65.0,29.75,North,360,3.0,7.0,95,0.00,,,0.11,,2013-10-06 12:12:00,
2013-10-06 08:22:00,66.0,65.0,29.75,North,360,4.0,8.0,95,0.00,,,0.11,,2013-10-06 12:22:00,
2013-10-06 08:42:00,66.0,64.0,29.75,North,360,5.0,9.0,94,0.01,,,0.12,,2013-10-06 12:42:00,
2013-10-06 08:52:00,66.0,65.0,29.75,North,360,5.0,9.0,95,0.01,,,0.12,,2013-10-06 12:52:00,
2013-10-06 09:11:00,66.0,65.0,29.74,North,360,5.0,10.0,95,0.01,,,0.12,,2013-10-06 13:11:00,
2013-10-06 09:21:00,66.0,65.0,29.73,North,360,4.0,10.0,95,0.01,,,0.12,,2013-10-06 13:21:00,
2013-10-06 09:42:00,66.0,65.0,29.73,North,360,3.0,11.0,95,0.00,,,0.12,,2013-10-06 13:42:00,
2013-10-06 09:52:00,63.0,61.0,29.74,North,360,4.0,8.0,93,0.00,,,0.12,,2013-10-06 13:52:00,
2013-10-06 10:11:00,61.0,59.0,29.75,North,360,4.0,8.0,94,0.00,,,0.12,,2013-10-06 14:11:00,
2013-10-06 10:22:00,59.0,58.0,29.75,North,360,3.0,10.0,95,0.00,,,0.12,,2013-10-06 14:22:00,
2013-10-06 10:42:00,58.0,57.0,29.76,North,360,1.0,7.0,96,0.00,,,0.12,,2013-10-06 14:42:00,
2013-10-06 10:52:00,57.0,56.0,29.77,North,360,3.0,11.0,96,0.02,,,0.14,,2013-10-06 14:52:00,
2013-10-06 11:11:00,56.0,55.0,29.75,North,360,3.0,4.0,97,0.03,,,0.15,,2013-10-06 15:11:00,
2013-10-06 11:22:00,56.0,55.0,29.75,North,360,2.0,5.0,97,0.05,,,0.17,,2013-10-06 15:22:00,
2013-10-06 11:43:00,56.0,55.0,29.76,North,360,1.0,7.0,97,0.06,,,0.18,,2013-10-06 15:43:00,
2013-10-06 11:54:00,56.0,55.0,29.76,North,360,2.0,5.0,97,0.10,,,0.24,,2013-10-06 15:54:00,
2013-10-06 12:12:00,56.0,55.0,29.77,North,360,4.0,8.0,97,0.15,,,0.30,,2013-10-06 16:12:00,
2013-10-06 12:23:00,55.0,54.0,29.77,North,360,4.0,8.0,97,0.16,,,0.33,,2013-10-06 16:23:00,
2013-10-06 12:42:00,55.0,54.0,29.76,North,360,3.0,6.0,97,0.16,,,0.34,,2013-10-06 16:42:00,
2013-10-06 12:53:00,55.0,54.0,29.77,North,360,2.0,7.0,97,0.12,,,0.36,,2013-10-06 16:53:00,
2013-10-06 13:12:00,55.0,54.0,29.76,North,360,3.0,8.0,98,0.07,,,0.37,,2013-10-06 17:12:00,
2013-10-06 13:22:00,55.0,54.0,29.76,North,360,1.0,7.0,97,0.06,,,0.39,,2013-10-06 17:22:00,
2013-10-06 13:42:00,55.0,54.0,29.75,North,360,1.0,4.0,97,0.07,,,0.41,,2013-10-06 17:42:00,
2013-10-06 13:53:00,55.0,54.0,29.75,North,360,1.0,4.0,97,0.07,,,0.41,,2013-10-06 17:53:00,
2013-10-06 14:12:00,55.0,54.0,29.74,North,360,3.0,5.0,97,0.05,,,0.42,,2013-10-06 18:12:00,
2013-10-06 14:22:00,55.0,53.0,29.72,North,360,2.0,5.0,94,0.03,,,0.42,,2013-10-06 18:22:00,
2013-10-06 14:43:00,55.0,53.0,29.72,North,360,1.0,3.0,94,0.01,,,0.42,,2013-10-06 18:43:00,
2013-10-06 14:52:00,55.0,54.0,29.72,North,360,2.0,4.0,95,0.00,,,0.42,,2013-10-06 18:52:00,
2013-10-06 15:11:00,55.0,54.0,29.72,North,360,2.0,5.0,95,0.00,,,0.42,,2013-10-06 19:11:00,
2013-10-06 15:22:00,55.0,51.0,29.72,North,360,1.0,5.0,87,0.00,,,0.42,,2013-10-06 19:22:00,
2013-10-06 15:42:00,56.0,52.0,29.72,North,360,2.0,5.0,86,0.00,,,0.38,,2013-10-06 19:42:00,
2013-10-06 15:53:00,57.0,52.0,29.72,North,360,4.0,10.0,83,0.00,,,0.38,,2013-10-06 19:53:00,
2013-10-06 16:11:00,59.0,54.0,29.71,North,360,3.0,6.0,83,0.00,,,0.38,,2013-10-06 20:11:00,
2013-10-06 16:22:00,59.0,52.0,29.71,North,360,2.0,6.0,79,0.00,,,0.38,,2013-10-06 20:22:00,
2013-10-06 16:42:00,59.0,54.0,29.71,North,360,2.0,3.0,82,0.00,,,0.37,,2013-10-06 20:42:00,
2013-10-06 16:53:00,59.0,52.0,29.71,North,360,2.0,5.0,77,0.00,,,0.37,,2013-10-06 20:53:00,
2013-10-06 17:12:00,59.0,54.0,29.70,North,360,0.0,1.0,83,0.00,,,0.37,,2013-10-06 21:12:00,
2013-10-06 17:22:00,60.0,54.0,29.70,North,360,1.0,3.0,80,0.00,,,0.37,,2013-10-06 21:22:00,
2013-10-06 17:34:00,60.0,54.0,29.70,North,360,1.0,3.0,80,0.00,,,0.37,,2013-10-06 21:34:00,
2013-10-06 17:44:00,60.0,54.0,29.70,North,360,1.0,3.0,80,0.00,,,0.37,,2013-10-06 21:44:00,
2013-10-06 17:55:00,61.0,52.0,29.69,North,360,2.0,6.0,73,0.00,,,0.37,,2013-10-06 21:55:00,
2013-10-06 18:13:00,61.0,53.0,29.70,North,360,3.0,7.0,74,0.00,,,0.37,,2013-10-06 22:13:00,
2013-10-06 18:24:00,60.0,52.0,29.70,North,360,2.0,4.0,75,0.00,,,0.37,,2013-10-06 22:24:00,
2013-10-06 18:43:00,60.0,53.0,29.71,North,360,2.0,4.0,77,0.00,,,0.37,,2013-10-06 22:43:00,
2013-10-06 18:54:00,60.0,53.0,29.71,North,360,2.0,4.0,77,0.00,,,0.37,,2013-10-06 22:54:00,
2013-10-06 19:12:00,60.0,55.0,29.71,North,360,0.0,0.0,83,0.00,,,0.37,,2013-10-06 23:12:00,
2013-10-06 19:22:00,59.0,55.0,29.71,North,360,0.0,0.0,86,0.00,,,0.37,,2013-10-06 23:22:00,
2013-10-06 19:53:00,57.0,54.0,29.72,North,360,0.0,0.0,89,0.00,,,0.36,,2013-10-06 23:53:00,
2013-10-06 20:12:00,56.0,53.0,29.72,North,360,0.0,0.0,89,0.00,,,0.36,,2013-10-07 00:12:00,
2013-10-06 20:22:00,56.0,53.0,29.72,North,360,0.0,0.0,89,0.00,,,0.36,,2013-10-07 00:22:00,
2013-10-06 20:42:00,56.0,53.0,29.72,North,360,0.0,0.0,89,0.00,,,0.33,,2013-10-07 00:42:00,
2013-10-06 20:52:00,57.0,50.0,29.73,North,360,3.0,11.0,77,0.00,,,0.33,,2013-10-07 00:52:00,
2013-10-06 21:11:00,56.0,47.0,29.75,North,360,3.0,10.0,73,0.00,,,0.33,,2013-10-07 01:11:00,
2013-10-06 21:22:00,55.0,46.0,29.75,North,360,5.0,10.0,72,0.00,,,0.33,,2013-10-07 01:22:00,
2013-10-06 21:42:00,54.0,46.0,29.76,North,360,3.0,10.0,74,0.00,,,0.33,,2013-10-07 01:42:00,
2013-10-06 21:53:00,54.0,46.0,29.76,North,360,4.0,10.0,73,0.00,,,0.33,,2013-10-07 01:53:00,
2013-10-06 22:12:00,53.0,44.0,29.77,North,360,5.0,12.0,72,0.00,,,0.33,,2013-10-07 02:12:00,
2013-10-06 22:22:00,53.0,45.0,29.77,North,360,4.0,11.0,73,0.00,,,0.33,,2013-10-07 02:22:00,
2013-10-06 22:42:00,52.0,43.0,29.77,North,360,5.0,10.0,70,0.00,,,0.33,,2013-10-07 02:42:00,
2013-10-06 22:53:00,52.0,43.0,29.78,North,360,4.0,12.0,71,0.00,,,0.33,,2013-10-07 02:53:00,
2013-10-06 23:12:00,51.0,42.0,29.78,North,360,5.0,11.0,72,0.00,,,0.33,,2013-10-07 03:12:00,
2013-10-06 23:22:00,51.0,43.0,29.78,North,360,3.0,8.0,73,0.00,,,0.33,,2013-10-07 03:22:00,
2013-10-06 23:44:00,50.0,42.0,29.78,North,360,2.0,6.0,74,0.00,,,0.33,,2013-10-07 03:44:00,
2013-10-06 23:54:00,49.0,42.0,29.78,North,360,1.0,7.0,78,0.00,,,0.33,,2013-10-07 03:54:00,